createdAt,value
2022-11-10T00:02:05.359Z,2.38
2022-11-10T00:04:33.117Z,2.03
2022-11-10T00:07:00.802Z,4.30
2022-11-10T00:09:29.812Z,2.35
2022-11-10T00:11:57.539Z,2.40
2022-11-10T00:14:42.704Z,2.45
2022-11-10T00:17:10.694Z,1.95
2022-11-10T00:19:38.325Z,2.38
2022-11-10T00:22:05.939Z,2.15
2022-11-10T00:24:34.960Z,2.30
2022-11-10T00:27:02.561Z,2.20
2022-11-10T00:29:30.182Z,2.13
2022-11-10T00:31:57.801Z,2.60
2022-11-10T00:34:25.404Z,3.17
2022-11-10T00:36:53.147Z,2.67
2022-11-10T00:39:20.744Z,2.15
2022-11-10T00:41:49.780Z,2.70
2022-11-10T00:44:17.419Z,2.58
2022-11-10T00:46:45.834Z,2.08
2022-11-10T00:49:13.574Z,2.88
2022-11-10T00:51:41.414Z,1.90
2022-11-10T00:54:09.288Z,2.10
2022-11-10T00:56:36.942Z,2.30
2022-11-10T00:59:05.993Z,1.67
2022-11-10T01:01:36.709Z,2.38
2022-11-10T01:04:04.652Z,2.42
2022-11-10T01:06:32.460Z,2.92
2022-11-10T01:09:00.141Z,2.17
2022-11-10T01:11:28.640Z,3.00
2022-11-10T01:13:56.936Z,2.53
2022-11-10T01:16:26.575Z,2.33
2022-11-10T01:18:55.715Z,2.75
2022-11-10T01:21:23.920Z,2.55
2022-11-10T01:23:51.756Z,2.90
2022-11-10T01:26:19.840Z,3.10
2022-11-10T01:28:47.428Z,2.17
2022-11-10T01:31:16.206Z,2.45
2022-11-10T01:33:45.444Z,3.60
2022-11-10T01:36:13.539Z,2.35
2022-11-10T01:38:42.161Z,2.50
2022-11-10T01:41:11.130Z,2.95
2022-11-10T01:43:39.121Z,3.15
2022-11-10T01:46:07.385Z,3.80
2022-11-10T01:48:36.991Z,3.40
2022-11-10T01:51:07.877Z,3.58
2022-11-10T01:53:37.075Z,2.58
2022-11-10T01:56:05.034Z,2.72
2022-11-10T01:58:34.377Z,2.53
2022-11-10T02:01:02.129Z,3.05
2022-11-10T02:03:33.406Z,2.55
2022-11-10T02:06:01.418Z,3.50
2022-11-10T02:08:30.671Z,3.60
2022-11-10T02:10:58.634Z,2.95
2022-11-10T02:13:26.789Z,2.55
2022-11-10T02:15:54.592Z,2.83
2022-11-10T02:18:22.213Z,2.72
2022-11-10T02:20:51.200Z,2.83
2022-11-10T02:23:33.762Z,2.88
2022-11-10T02:26:02.042Z,2.63
2022-11-10T02:28:29.922Z,2.65
2022-11-10T02:30:57.538Z,2.63
2022-11-10T02:33:25.181Z,3.25
2022-11-10T02:35:54.370Z,3.33
2022-11-10T02:38:22.011Z,3.55
2022-11-10T02:40:50.158Z,2.78
2022-11-10T02:43:18.389Z,3.28
2022-11-10T02:45:46.022Z,3.55
2022-11-10T02:48:14.282Z,2.80
2022-11-10T02:50:42.283Z,3.83
2022-11-10T02:53:11.428Z,3.63
2022-11-10T02:55:39.215Z,2.72
2022-11-10T02:58:06.855Z,2.38
2022-11-10T03:00:34.482Z,3.13
2022-11-10T03:03:03.102Z,2.85
2022-11-10T03:05:30.983Z,2.60
2022-11-10T03:07:59.419Z,3.15
2022-11-10T03:10:29.123Z,2.63
2022-11-10T03:12:57.480Z,4.22
2022-11-10T03:15:25.407Z,3.13
2022-11-10T03:17:53.418Z,3.58
2022-11-10T03:20:21.421Z,3.60
2022-11-10T03:22:49.031Z,3.45
2022-11-10T03:25:16.645Z,3.00
2022-11-10T03:27:46.011Z,3.00
2022-11-10T03:30:13.960Z,2.45
2022-11-10T03:32:41.998Z,3.10
2022-11-10T03:35:10.973Z,3.30
2022-11-10T03:37:38.603Z,3.05
2022-11-10T03:40:06.595Z,2.30
2022-11-10T03:42:34.236Z,2.65
2022-11-10T03:45:03.199Z,3.42
2022-11-10T03:47:30.826Z,3.70
2022-11-10T03:49:58.405Z,3.75
2022-11-10T03:52:26.380Z,3.60
2022-11-10T03:54:55.351Z,2.92
2022-11-10T03:57:24.657Z,3.05
2022-11-10T03:59:52.343Z,3.08
2022-11-10T04:02:21.336Z,3.28
2022-11-10T04:05:06.606Z,3.20
2022-11-10T04:07:51.543Z,2.67
2022-11-10T04:10:19.217Z,3.07
2022-11-10T04:13:04.517Z,2.65
2022-11-10T04:15:44.296Z,2.83
2022-11-10T04:18:25.582Z,3.65
2022-11-10T04:20:54.217Z,2.28
2022-11-10T04:23:27.897Z,2.55
2022-11-10T04:26:15.026Z,2.22
2022-11-10T04:31:10.285Z,2.20
2022-11-10T04:33:39.517Z,3.00
2022-11-10T04:36:07.365Z,2.60
2022-11-10T04:38:35.023Z,2.63
2022-11-10T04:41:03.059Z,2.72
2022-11-10T04:43:31.334Z,3.08
2022-11-10T04:45:59.509Z,3.08
2022-11-10T04:48:27.746Z,3.08
2022-11-10T04:50:57.155Z,3.28
2022-11-10T04:53:25.488Z,2.72
2022-11-10T04:55:54.657Z,3.47
2022-11-10T04:58:22.272Z,3.05
2022-11-10T05:00:50.066Z,3.22
2022-11-10T05:03:17.759Z,2.70
2022-11-10T05:05:45.553Z,3.50
2022-11-10T05:08:14.518Z,2.78
2022-11-10T05:10:42.156Z,2.67
2022-11-10T05:13:10.418Z,2.78
2022-11-10T05:15:41.367Z,3.03
2022-11-10T05:18:09.029Z,2.72
2022-11-10T05:20:37.059Z,3.45
2022-11-10T05:23:22.922Z,2.55
2022-11-10T05:25:52.202Z,2.95
2022-11-10T05:28:20.056Z,2.65
2022-11-10T05:30:47.721Z,3.28
2022-11-10T05:33:15.475Z,3.10
2022-11-10T05:35:44.212Z,3.72
2022-11-10T05:38:11.835Z,2.97
2022-11-10T05:40:39.537Z,2.95
2022-11-10T05:43:08.521Z,3.05
2022-11-10T05:45:36.145Z,3.58
2022-11-10T05:48:04.047Z,4.00
2022-11-10T05:50:31.826Z,3.40
2022-11-10T05:52:59.524Z,3.55
2022-11-10T05:55:28.401Z,3.72
2022-11-10T05:57:57.146Z,3.75
2022-11-10T06:00:27.108Z,3.85
2022-11-10T06:02:59.030Z,2.67
2022-11-10T06:05:30.936Z,4.55
2022-11-10T06:07:59.243Z,2.72
2022-11-10T06:10:27.421Z,2.92
2022-11-10T06:12:55.428Z,3.45
2022-11-10T06:15:23.169Z,3.35
2022-11-10T06:17:52.405Z,2.55
2022-11-10T06:20:20.226Z,2.92
2022-11-10T06:22:59.486Z,3.60
2022-11-10T06:25:27.223Z,3.65
2022-11-10T06:27:54.833Z,3.38
2022-11-10T06:30:22.493Z,3.13
2022-11-10T06:32:50.117Z,3.25
2022-11-10T06:35:19.268Z,3.13
2022-11-10T06:37:46.989Z,3.25
2022-11-10T06:40:15.089Z,3.17
2022-11-10T06:42:42.755Z,3.72
2022-11-10T06:45:10.762Z,3.75
2022-11-10T06:47:38.408Z,3.25
2022-11-10T06:50:06.326Z,4.25
2022-11-10T06:52:35.421Z,2.72
2022-11-10T06:55:03.089Z,2.65
2022-11-10T06:57:30.785Z,3.20
2022-11-10T06:59:58.385Z,5.55
2022-11-10T07:02:26.053Z,3.80
2022-11-10T07:04:53.687Z,3.72
2022-11-10T07:07:21.432Z,3.08
2022-11-10T07:09:50.430Z,3.75
2022-11-10T07:12:18.242Z,2.88
2022-11-10T07:14:45.852Z,3.42
2022-11-10T07:17:14.162Z,2.95
2022-11-10T07:19:41.789Z,2.95
2022-11-10T07:22:11.198Z,3.13
2022-11-10T07:24:39.493Z,3.40
2022-11-10T07:27:08.790Z,3.88
2022-11-10T07:29:36.390Z,3.03
2022-11-10T07:32:04.299Z,3.75
2022-11-10T07:34:31.912Z,3.97
2022-11-10T07:36:59.898Z,3.13
2022-11-10T07:39:27.532Z,3.10
2022-11-10T07:41:55.155Z,2.65
2022-11-10T07:44:24.197Z,3.60
2022-11-10T07:46:51.836Z,4.00
2022-11-10T07:49:19.496Z,2.92
2022-11-10T07:51:47.104Z,3.15
2022-11-10T07:54:14.713Z,2.65
2022-11-10T07:56:42.435Z,3.30
2022-11-10T07:59:10.056Z,3.28
2022-11-10T08:01:39.083Z,3.50
2022-11-10T08:04:06.756Z,3.28
2022-11-10T08:06:36.441Z,3.35
2022-11-10T08:09:04.452Z,3.63
2022-11-10T08:11:32.197Z,2.45
2022-11-10T08:14:00.211Z,2.92
2022-11-10T08:16:27.809Z,3.10
2022-11-10T08:18:56.754Z,2.83
2022-11-10T08:21:24.386Z,3.13
2022-11-10T08:23:51.985Z,2.42
2022-11-10T08:26:19.674Z,2.60
2022-11-10T08:28:47.287Z,2.70
2022-11-10T08:31:14.962Z,2.83
2022-11-10T08:33:42.607Z,2.75
2022-11-10T08:36:11.829Z,3.05
2022-11-10T08:38:39.456Z,2.70
2022-11-10T08:41:07.033Z,2.67
2022-11-10T08:43:34.676Z,2.45
2022-11-10T08:46:02.728Z,3.25
2022-11-10T08:48:30.396Z,2.85
2022-11-10T08:51:00.350Z,3.45
2022-11-10T08:53:29.644Z,2.92
2022-11-10T08:55:59.769Z,3.05
2022-11-10T08:58:27.420Z,3.17
2022-11-10T09:00:55.133Z,2.50
2022-11-10T09:03:23.920Z,4.55
2022-11-10T09:05:57.648Z,3.65
2022-11-10T09:08:26.080Z,2.97
2022-11-10T09:10:55.171Z,3.67
2022-11-10T09:13:28.960Z,2.65
2022-11-10T09:15:57.964Z,3.05
2022-11-10T09:18:25.585Z,2.78
2022-11-10T09:20:53.210Z,2.00
2022-11-10T09:23:22.426Z,2.33
2022-11-10T09:25:50.901Z,2.85
2022-11-10T09:28:20.439Z,2.55
2022-11-10T09:30:48.271Z,2.33
2022-11-10T09:33:16.080Z,2.60
2022-11-10T09:35:43.804Z,3.10
2022-11-10T09:38:11.910Z,3.20
2022-11-10T09:40:50.766Z,2.33
2022-11-10T09:43:21.843Z,2.58
2022-11-10T09:45:52.117Z,2.78
2022-11-10T09:48:23.920Z,2.15
2022-11-10T09:50:56.686Z,1.90
2022-11-10T09:53:25.976Z,2.15
2022-11-10T09:55:54.912Z,2.33
2022-11-10T09:58:25.618Z,2.45
2022-11-10T10:00:59.079Z,2.55
2022-11-10T10:03:30.252Z,2.50
2022-11-10T10:06:02.670Z,2.70
2022-11-10T10:08:34.657Z,2.28
2022-11-10T10:11:10.864Z,2.22
2022-11-10T10:13:56.039Z,2.22
2022-11-10T10:16:28.855Z,1.95
2022-11-10T10:19:00.748Z,2.63
2022-11-10T10:21:42.019Z,2.20
2022-11-10T10:24:19.937Z,2.35
2022-11-10T10:26:51.428Z,2.42
2022-11-10T10:29:22.677Z,2.85
2022-11-10T10:31:51.533Z,2.58
2022-11-10T10:34:21.041Z,2.60
2022-11-10T10:36:48.662Z,1.70
2022-11-10T10:39:17.813Z,1.80
2022-11-10T10:41:46.356Z,2.13
2022-11-10T10:44:15.396Z,2.67
2022-11-10T10:46:49.094Z,1.90
2022-11-10T10:49:28.578Z,1.92
2022-11-10T10:52:04.576Z,2.80
2022-11-10T10:57:03.920Z,2.15
2022-11-10T10:59:32.136Z,1.80
2022-11-10T11:02:01.153Z,1.73
2022-11-10T11:04:30.682Z,2.53
2022-11-10T11:06:59.257Z,1.08
2022-11-10T11:09:27.800Z,1.58
2022-11-10T11:12:02.579Z,1.63
2022-11-10T11:14:31.512Z,1.63
2022-11-10T11:16:59.954Z,1.88
2022-11-10T11:19:31.108Z,1.70
2022-11-10T11:22:16.419Z,1.70
2022-11-10T11:24:47.229Z,2.10
2022-11-10T11:27:18.601Z,2.47
2022-11-10T11:30:01.153Z,1.48
2022-11-10T11:32:33.838Z,1.40
2022-11-10T11:35:08.461Z,1.55
2022-11-10T11:37:41.165Z,1.45
2022-11-10T11:40:15.937Z,1.70
2022-11-10T11:42:48.237Z,2.85
2022-11-10T11:45:20.199Z,1.40
2022-11-10T11:47:54.751Z,1.58
2022-11-10T11:50:28.274Z,1.85
2022-11-10T11:52:58.908Z,1.30
2022-11-10T11:55:32.383Z,2.13
2022-11-10T11:58:08.722Z,1.60
2022-11-10T12:00:39.966Z,1.88
2022-11-10T12:03:21.619Z,2.22
2022-11-10T12:05:55.931Z,1.42
2022-11-10T12:08:27.830Z,1.52
2022-11-10T12:11:01.633Z,1.25
2022-11-10T12:13:39.323Z,1.80
2022-11-10T12:16:12.631Z,1.50
2022-11-10T12:18:49.512Z,2.35
2022-11-10T12:21:26.027Z,1.67
2022-11-10T12:23:59.067Z,1.65
2022-11-10T12:26:32.809Z,1.35
2022-11-10T12:29:04.876Z,1.80
2022-11-10T12:31:35.524Z,1.33
2022-11-10T12:34:05.445Z,1.25
2022-11-10T12:36:34.550Z,1.23
2022-11-10T12:39:04.258Z,1.30
2022-11-10T12:41:36.279Z,1.08
2022-11-10T12:44:07.288Z,1.35
2022-11-10T12:46:34.937Z,1.00
2022-11-10T12:49:08.673Z,1.75
2022-11-10T12:51:43.710Z,1.30
2022-11-10T12:54:16.437Z,2.03
2022-11-10T12:56:46.581Z,1.40
2022-11-10T12:59:15.965Z,1.20
2022-11-10T13:01:44.163Z,1.20
2022-11-10T13:04:14.966Z,1.58
2022-11-10T13:06:49.769Z,1.45
2022-11-10T13:09:24.183Z,1.45
2022-11-10T13:12:05.265Z,1.40
2022-11-10T13:14:32.932Z,1.65
2022-11-10T13:17:00.728Z,1.20
2022-11-10T13:19:46.777Z,2.22
2022-11-10T13:22:28.901Z,2.15
2022-11-10T13:25:11.373Z,1.50
2022-11-10T13:27:52.768Z,1.30
2022-11-10T13:30:35.286Z,1.65
2022-11-10T13:33:17.876Z,1.45
2022-11-10T13:35:49.966Z,1.38
2022-11-10T13:38:34.434Z,1.25
2022-11-10T13:41:13.991Z,1.42
2022-11-10T13:43:48.825Z,1.38
2022-11-10T13:46:16.744Z,1.20
2022-11-10T13:48:48.643Z,1.05
2022-11-10T13:51:25.385Z,1.10
2022-11-10T13:54:02.004Z,1.27
2022-11-10T13:56:38.505Z,1.50
2022-11-10T13:59:17.108Z,1.45
2022-11-10T14:01:44.776Z,1.85
2022-11-10T14:04:37.349Z,1.38
2022-11-10T14:07:06.322Z,1.38
2022-11-10T14:09:39.721Z,1.20
2022-11-10T14:12:15.067Z,1.40
2022-11-10T14:14:48.518Z,1.13
2022-11-10T14:17:18.376Z,1.52
2022-11-10T14:19:46.791Z,1.40
2022-11-10T14:22:21.926Z,1.85
2022-11-10T14:24:53.777Z,1.13
2022-11-10T14:27:23.741Z,1.60
2022-11-10T14:30:04.257Z,2.30
2022-11-10T14:32:31.982Z,1.67
2022-11-10T14:34:59.805Z,1.58
2022-11-10T14:37:28.979Z,2.28
2022-11-10T14:39:58.741Z,2.40
2022-11-10T14:42:28.033Z,1.20
2022-11-10T14:45:09.010Z,1.30
2022-11-10T14:47:37.732Z,1.73
2022-11-10T14:50:15.958Z,1.55
2022-11-10T14:52:45.310Z,1.52
2022-11-10T14:55:16.924Z,1.42
2022-11-10T14:57:47.973Z,1.40
2022-11-10T15:00:18.529Z,1.85
2022-11-10T15:02:46.280Z,2.35
2022-11-10T15:05:15.021Z,1.33
2022-11-10T15:07:43.945Z,1.20
2022-11-10T15:10:18.737Z,1.45
2022-11-10T15:12:58.772Z,1.50
2022-11-10T15:15:26.416Z,1.80
2022-11-10T15:17:54.002Z,1.90
2022-11-10T15:20:28.963Z,1.58
2022-11-10T15:22:58.472Z,1.35
2022-11-10T15:25:32.958Z,2.17
2022-11-10T15:28:01.943Z,1.40
2022-11-10T15:30:30.104Z,1.42
2022-11-10T15:33:02.080Z,1.70
2022-11-10T15:35:31.735Z,1.80
2022-11-10T15:38:00.473Z,1.70
2022-11-10T15:40:34.474Z,2.22
2022-11-10T15:43:15.043Z,1.83
2022-11-10T15:45:42.958Z,1.60
2022-11-10T15:48:12.904Z,1.52
2022-11-10T15:50:40.716Z,1.48
2022-11-10T15:53:11.392Z,1.77
2022-11-10T15:55:41.281Z,1.52
2022-11-10T15:58:12.921Z,1.48
2022-11-10T16:00:40.702Z,1.48
2022-11-10T16:03:11.009Z,1.90
2022-11-10T16:05:41.046Z,2.00
2022-11-10T16:08:15.723Z,1.50
2022-11-10T16:10:46.552Z,1.77
2022-11-10T16:13:16.221Z,2.20
2022-11-10T16:15:45.265Z,1.60
2022-11-10T16:18:13.956Z,1.77
2022-11-10T16:20:41.606Z,1.50
2022-11-10T16:23:09.263Z,1.75
2022-11-10T16:25:37.363Z,1.55
2022-11-10T16:28:06.824Z,1.35
2022-11-10T16:30:34.847Z,3.03
2022-11-10T16:33:02.514Z,1.67
2022-11-10T16:35:30.850Z,1.85
2022-11-10T16:37:58.475Z,2.13
2022-11-10T16:40:26.148Z,1.80
2022-11-10T16:42:53.770Z,1.35
2022-11-10T16:45:23.972Z,1.83
2022-11-10T16:47:53.227Z,2.00
2022-11-10T16:50:30.493Z,2.55
2022-11-10T16:52:58.648Z,2.20
2022-11-10T16:55:26.249Z,1.95
2022-11-10T16:57:54.037Z,2.05
2022-11-10T17:00:23.453Z,2.00
2022-11-10T17:02:56.818Z,2.65
2022-11-10T17:05:24.480Z,2.55
2022-11-10T17:07:52.252Z,2.47
2022-11-10T17:10:20.584Z,1.95
2022-11-10T17:12:48.391Z,2.70
2022-11-10T17:15:16.453Z,2.80
2022-11-10T17:17:46.170Z,2.75
2022-11-10T17:20:18.311Z,3.38
2022-11-10T17:22:46.268Z,2.30
2022-11-10T17:25:16.732Z,2.85
2022-11-10T17:27:44.714Z,2.85
2022-11-10T17:30:14.124Z,2.20
2022-11-10T17:33:03.621Z,2.30
2022-11-10T17:35:35.046Z,2.30
2022-11-10T17:38:05.315Z,2.13
2022-11-10T17:40:32.906Z,2.20
2022-11-10T17:43:00.565Z,2.53
2022-11-10T17:45:30.015Z,2.33
2022-11-10T17:47:57.681Z,2.60
2022-11-10T17:50:25.483Z,2.40
2022-11-10T17:52:54.711Z,2.92
2022-11-10T17:55:23.434Z,3.15
2022-11-10T17:57:51.494Z,2.40
2022-11-10T18:00:19.710Z,3.50
2022-11-10T18:02:54.079Z,3.03
2022-11-10T18:05:23.152Z,2.63
2022-11-10T18:07:52.077Z,3.88
2022-11-10T18:10:21.350Z,2.60
2022-11-10T18:12:49.243Z,2.42
2022-11-10T18:15:17.569Z,2.63
2022-11-10T18:17:45.557Z,2.78
2022-11-10T18:20:13.904Z,2.83
2022-11-10T18:22:41.722Z,2.92
2022-11-10T18:25:10.029Z,4.20
2022-11-10T18:27:38.984Z,3.65
2022-11-10T18:30:07.161Z,3.28
2022-11-10T18:32:34.901Z,4.50
2022-11-10T18:35:02.545Z,4.25
2022-11-10T18:37:30.112Z,4.13
2022-11-10T18:39:57.742Z,4.43
2022-11-10T18:42:25.651Z,4.10
2022-11-10T18:44:55.033Z,4.47
2022-11-10T18:47:22.644Z,3.97
2022-11-10T18:49:50.299Z,4.40
2022-11-10T18:52:17.908Z,5.20
2022-11-10T18:54:45.735Z,4.10
2022-11-10T18:57:18.298Z,5.53
2022-11-10T18:59:46.286Z,5.00
2022-11-10T19:02:15.574Z,5.30
2022-11-10T19:04:43.265Z,5.53
2022-11-10T19:07:10.967Z,4.95
2022-11-10T19:09:38.612Z,4.78
2022-11-10T19:12:06.539Z,5.03
2022-11-10T19:14:34.220Z,4.97
2022-11-10T19:17:02.044Z,5.47
2022-11-10T19:19:31.103Z,5.15
2022-11-10T19:21:58.774Z,5.07
2022-11-10T19:24:28.326Z,5.53
2022-11-10T19:26:57.824Z,5.43
2022-11-10T19:29:25.457Z,5.32
2022-11-10T19:31:53.071Z,4.93
2022-11-10T19:34:21.386Z,4.88
2022-11-10T19:36:50.341Z,4.57
2022-11-10T19:39:18.079Z,4.90
2022-11-10T19:41:45.698Z,5.50
2022-11-10T19:44:13.340Z,4.85
2022-11-10T19:46:40.972Z,5.07
2022-11-10T19:49:08.560Z,5.05
2022-11-10T19:51:36.198Z,6.50
2022-11-10T19:54:06.049Z,5.03
2022-11-10T19:56:35.663Z,4.90
2022-11-10T19:59:03.271Z,5.15
2022-11-10T20:01:32.716Z,4.90
2022-11-10T20:04:00.753Z,5.88
2022-11-10T20:06:28.349Z,5.05
2022-11-10T20:08:56.062Z,5.05
2022-11-10T20:11:26.035Z,4.97
2022-11-10T20:13:55.231Z,5.70
2022-11-10T20:16:23.213Z,4.80
2022-11-10T20:18:50.943Z,6.13
2022-11-10T20:21:20.981Z,6.10
2022-11-10T20:23:52.790Z,6.43
2022-11-10T20:26:20.445Z,5.35
2022-11-10T20:28:49.817Z,6.10
2022-11-10T20:31:20.394Z,6.68
2022-11-10T20:33:48.216Z,6.60
2022-11-10T20:36:20.376Z,7.30
2022-11-10T20:38:48.502Z,7.22
2022-11-10T20:41:17.037Z,7.13
2022-11-10T20:43:44.693Z,6.80
2022-11-10T20:46:33.363Z,7.78
2022-11-10T20:49:02.202Z,8.55
2022-11-10T20:51:29.990Z,8.23
2022-11-10T20:53:59.329Z,7.53
2022-11-10T20:56:29.795Z,10.25
2022-11-10T20:58:58.175Z,7.68
2022-11-10T21:01:27.387Z,7.55
2022-11-10T21:03:55.477Z,7.50
2022-11-10T21:06:23.094Z,8.40
2022-11-10T21:08:50.813Z,7.40
2022-11-10T21:11:38.916Z,8.25
2022-11-10T21:14:05.573Z,9.23
2022-11-10T21:16:34.568Z,7.65
2022-11-10T21:19:02.436Z,8.48
2022-11-10T21:21:34.632Z,8.40
2022-11-10T21:24:02.808Z,7.20
2022-11-10T21:26:30.684Z,9.40
2022-11-10T21:28:58.374Z,8.48
2022-11-10T21:31:25.985Z,8.40
2022-11-10T21:33:56.983Z,8.38
2022-11-10T21:36:28.327Z,10.40
2022-11-10T21:38:56.121Z,9.45
2022-11-10T21:41:23.711Z,7.72
2022-11-10T21:43:51.348Z,8.82
2022-11-10T21:46:19.261Z,7.35
2022-11-10T21:48:46.988Z,9.40
2022-11-10T21:51:16.431Z,8.70
2022-11-10T21:53:44.149Z,8.77
2022-11-10T21:56:12.451Z,8.43
2022-11-10T21:58:40.133Z,9.18
2022-11-10T22:01:08.559Z,7.93
2022-11-10T22:03:36.611Z,8.45
2022-11-10T22:06:05.105Z,7.85
2022-11-10T22:08:34.066Z,7.88
2022-11-10T22:11:19.447Z,9.68
2022-11-10T22:14:04.047Z,7.65
2022-11-10T22:16:51.694Z,8.05
2022-11-10T22:19:19.357Z,9.23
2022-11-10T22:21:47.149Z,8.32
2022-11-10T22:24:29.001Z,8.98
2022-11-10T22:26:58.982Z,7.53
2022-11-10T22:29:31.440Z,7.97
2022-11-10T22:31:59.869Z,8.10
2022-11-10T22:34:27.491Z,7.22
2022-11-10T22:36:55.800Z,7.55
2022-11-10T22:39:44.860Z,7.43
2022-11-10T22:42:29.943Z,7.97
2022-11-10T22:44:57.616Z,7.82
2022-11-10T22:47:25.218Z,7.65
2022-11-10T22:49:52.978Z,7.95
2022-11-10T22:52:20.806Z,7.78
2022-11-10T22:54:50.045Z,8.15
2022-11-10T22:57:17.784Z,8.02
2022-11-10T22:59:45.431Z,7.40
2022-11-10T23:02:13.042Z,9.15
2022-11-10T23:04:40.696Z,8.25
2022-11-10T23:07:08.897Z,7.18
2022-11-10T23:09:36.524Z,7.28
2022-11-10T23:12:06.043Z,7.10
2022-11-10T23:14:33.673Z,7.95
2022-11-10T23:17:01.283Z,7.63
2022-11-10T23:19:28.890Z,7.32
2022-11-10T23:21:56.521Z,7.53
2022-11-10T23:24:25.144Z,6.47
2022-11-10T23:26:52.772Z,6.97
2022-11-10T23:29:21.747Z,7.47
2022-11-10T23:31:49.343Z,6.70
2022-11-10T23:34:17.091Z,7.05
2022-11-10T23:36:44.674Z,7.30
2022-11-10T23:39:13.156Z,7.78
2022-11-10T23:41:40.876Z,7.85
2022-11-10T23:44:08.477Z,7.75
2022-11-10T23:46:37.780Z,7.40
2022-11-10T23:49:05.449Z,7.47
2022-11-10T23:51:33.070Z,8.23
2022-11-10T23:54:00.770Z,6.72
2022-11-10T23:56:28.535Z,7.28
2022-11-10T23:58:56.272Z,6.20
